Time;durP1;ratioP1;P1;durP2;ratioP2;P2;SDS_P1;SDS_P2;PMS_P1;PMS_P2;Temp;Humidity;BMP_temperature;BMP_pressure;BME280_temperature;BME280_humidity;BME280_pressure;Samples;Min_cycle;Max_cycle;Signal;HPM_P1;HPM_P2
2021/09/15 00:01:15;;;;;;;4.25;2.90;;;18.30;68.70;;;;;;5019176;28;20037;-63
2021/09/15 00:03:40;;;;;;;4.78;3.60;;;18.20;68.50;;;;;;5000319;28;20026;-63
2021/09/15 00:06:07;;;;;;;5.03;3.58;;;18.20;68.50;;;;;;5017612;28;20065;-63
2021/09/15 00:08:33;;;;;;;4.35;3.35;;;18.20;68.60;;;;;;5018743;28;20040;-63
2021/09/15 00:11:00;;;;;;;6.35;3.90;;;18.10;68.50;;;;;;5001132;28;20026;-63
2021/09/15 00:13:26;;;;;;;4.63;3.33;;;18.10;68.50;;;;;;5001418;28;20030;-63
2021/09/15 00:15:52;;;;;;;4.97;3.47;;;18.10;68.40;;;;;;5007720;28;20014;-63
2021/09/15 00:18:18;;;;;;;5.68;4.00;;;18.10;68.30;;;;;;5020757;28;20052;-63
2021/09/15 00:20:44;;;;;;;5.47;3.40;;;18.10;68.30;;;;;;5020118;28;20032;-63
2021/09/15 00:23:09;;;;;;;4.40;3.53;;;18.10;67.90;;;;;;5017638;28;20049;-63
2021/09/15 00:25:35;;;;;;;4.30;3.10;;;18.10;67.70;;;;;;5017980;28;20386;-63
2021/09/15 00:28:01;;;;;;;3.83;3.00;;;18.00;67.50;;;;;;5006036;28;20402;-63
2021/09/15 00:30:27;;;;;;;3.70;2.85;;;18.00;67.20;;;;;;5016484;28;20033;-63
2021/09/15 00:32:52;;;;;;;4.15;3.25;;;18.00;66.90;;;;;;5018904;28;20525;-63
2021/09/15 00:35:18;;;;;;;4.57;3.88;;;18.00;66.60;;;;;;5018892;28;20033;-63
2021/09/15 00:37:43;;;;;;;3.35;2.92;;;18.00;66.30;;;;;;5014934;28;20037;-63
2021/09/15 00:40:10;;;;;;;4.80;3.20;;;17.90;65.80;;;;;;5018535;28;20367;-63
2021/09/15 00:42:35;;;;;;;4.63;3.05;;;17.90;65.80;;;;;;5018579;28;20385;-63
2021/09/15 00:45:02;;;;;;;4.05;2.80;;;17.90;65.20;;;;;;5002562;28;20068;-63
2021/09/15 00:47:28;;;;;;;3.35;2.60;;;17.90;64.80;;;;;;4998261;28;20034;-63
2021/09/15 00:49:53;;;;;;;4.07;2.70;;;17.90;64.20;;;;;;5009480;28;20469;-63
2021/09/15 00:52:20;;;;;;;3.90;2.63;;;17.90;64.00;;;;;;5018862;28;20034;-63
2021/09/15 00:54:46;;;;;;;3.30;2.55;;;17.90;63.50;;;;;;5016974;28;20040;-63
2021/09/15 00:57:12;;;;;;;5.10;2.80;;;17.80;62.80;;;;;;4998727;28;20018;-63
2021/09/15 00:59:39;;;;;;;3.00;2.35;;;17.80;62.50;;;;;;4998722;28;20041;-63
2021/09/15 01:02:05;;;;;;;4.15;2.50;;;17.80;62.20;;;;;;5010435;28;20104;-63
2021/09/15 01:04:31;;;;;;;4.28;2.58;;;17.70;62.30;;;;;;5018176;28;20029;-63
2021/09/15 01:06:57;;;;;;;4.18;2.95;;;17.70;62.10;;;;;;5018352;28;20045;-63
2021/09/15 01:09:23;;;;;;;6.20;2.95;;;17.70;62.00;;;;;;5018670;28;20101;-63
2021/09/15 01:11:48;;;;;;;6.40;2.80;;;17.70;61.70;;;;;;5018405;28;20052;-63
2021/09/15 01:14:14;;;;;;;4.65;2.78;;;17.70;61.80;;;;;;5006631;28;20471;-63
2021/09/15 01:17:02;;;;;;;3.58;2.33;;;17.70;61.80;;;;;;5004103;28;20029;-63
2021/09/15 01:19:28;;;;;;;3.97;2.70;;;17.60;62.00;;;;;;5016949;28;20041;-63
2021/09/15 01:21:54;;;;;;;8.32;2.72;;;17.60;62.00;;;;;;5017200;28;20049;-63
2021/09/15 01:24:21;;;;;;;3.60;2.60;;;17.60;62.10;;;;;;5018245;28;20037;-63
2021/09/15 01:26:47;;;;;;;4.22;2.80;;;17.60;61.80;;;;;;5018623;28;20030;-63
2021/09/15 01:29:25;;;;;;;3.60;2.83;;;17.60;61.70;;;;;;5018313;28;20030;-63
2021/09/15 01:32:09;;;;;;;3.22;2.78;;;17.60;61.60;;;;;;5012589;28;20034;-63
2021/09/15 01:34:38;;;;;;;3.33;2.50;;;17.60;61.50;;;;;;5006117;28;20026;-63
2021/09/15 01:37:05;;;;;;;3.25;2.40;;;17.50;61.60;;;;;;5013215;28;20026;-63
2021/09/15 01:39:31;;;;;;;3.95;2.85;;;17.50;61.50;;;;;;4997707;28;20030;-63
2021/09/15 01:41:59;;;;;;;3.55;2.40;;;17.50;61.40;;;;;;4997653;28;20054;-63
2021/09/15 01:44:36;;;;;;;3.33;2.50;;;17.50;61.30;;;;;;4998566;28;20045;-63
2021/09/15 01:47:03;;;;;;;3.80;2.60;;;17.50;61.20;;;;;;4998467;28;20434;-63
2021/09/15 01:49:30;;;;;;;4.57;2.53;;;17.50;61.10;;;;;;5016317;28;20076;-63
2021/09/15 01:51:56;;;;;;;3.30;2.65;;;17.50;61.20;;;;;;5016205;28;20084;-63
2021/09/15 01:54:22;;;;;;;3.45;2.83;;;17.40;61.30;;;;;;5017690;28;20038;-63
2021/09/15 01:56:48;;;;;;;4.63;2.63;;;17.40;61.20;;;;;;5017186;28;20360;-63
2021/09/15 01:59:13;;;;;;;3.95;2.67;;;17.40;61.30;;;;;;5029278;28;20029;-63
2021/09/15 02:01:39;;;;;;;3.60;2.60;;;17.40;61.00;;;;;;5031711;28;20046;-63
2021/09/15 02:04:05;;;;;;;3.40;2.47;;;17.40;60.90;;;;;;5010046;28;20087;-63
2021/09/15 02:06:31;;;;;;;2.95;2.45;;;17.30;60.60;;;;;;5014253;28;20621;-63
2021/09/15 02:08:56;;;;;;;3.53;2.50;;;17.30;60.40;;;;;;5015328;28;20034;-63
2021/09/15 02:11:22;;;;;;;3.42;2.58;;;17.30;60.40;;;;;;5015473;28;20500;-63
2021/09/15 02:13:48;;;;;;;3.33;2.55;;;17.30;60.70;;;;;;5015515;28;20033;-63
2021/09/15 02:16:13;;;;;;;3.40;2.50;;;17.20;60.70;;;;;;5015898;28;20029;-63
2021/09/15 02:18:39;;;;;;;3.42;2.40;;;17.20;60.90;;;;;;5016207;28;20030;-63
2021/09/15 02:21:05;;;;;;;4.03;2.70;;;17.20;60.80;;;;;;5016672;28;20029;-63
2021/09/15 02:23:30;;;;;;;3.35;2.38;;;17.20;60.70;;;;;;5015895;28;20038;-63
2021/09/15 02:25:56;;;;;;;3.63;2.97;;;17.10;60.70;;;;;;5015921;28;20474;-63
2021/09/15 02:28:22;;;;;;;4.43;2.83;;;17.10;60.70;;;;;;5017070;28;20040;-63
2021/09/15 02:30:47;;;;;;;2.95;2.25;;;17.10;60.70;;;;;;5016642;28;20417;-63
2021/09/15 02:33:13;;;;;;;3.08;2.40;;;17.10;60.70;;;;;;5016237;28;20018;-63
2021/09/15 02:35:39;;;;;;;3.83;2.75;;;17.10;60.70;;;;;;5016096;28;20014;-63
2021/09/15 02:38:04;;;;;;;4.40;2.58;;;17.00;60.70;;;;;;5016031;28;20109;-63
2021/09/15 02:40:30;;;;;;;4.43;2.15;;;17.00;60.70;;;;;;5016264;28;20492;-63
2021/09/15 02:42:55;;;;;;;3.83;2.53;;;17.00;60.40;;;;;;5015656;28;20037;-63
2021/09/15 02:45:21;;;;;;;2.58;2.00;;;17.00;60.20;;;;;;5016421;28;20037;-63
2021/09/15 02:47:47;;;;;;;3.58;2.08;;;17.00;60.00;;;;;;5016089;28;20037;-63
2021/09/15 02:50:12;;;;;;;2.53;2.00;;;16.90;60.00;;;;;;5016174;28;20026;-63
2021/09/15 02:52:38;;;;;;;2.33;2.13;;;16.90;60.00;;;;;;5016132;28;20056;-63
2021/09/15 02:55:04;;;;;;;2.70;2.00;;;16.90;60.20;;;;;;5016432;28;20025;-63
2021/09/15 02:57:30;;;;;;;1.85;1.65;;;16.90;60.00;;;;;;5006593;28;20030;-63
2021/09/15 02:59:55;;;;;;;2.35;1.95;;;16.90;60.00;;;;;;4995033;28;20041;-63
2021/09/15 03:02:21;;;;;;;3.22;2.20;;;16.90;59.80;;;;;;5007380;28;20037;-63
2021/09/15 03:04:47;;;;;;;2.22;1.80;;;16.90;59.60;;;;;;5018970;28;20025;-63
2021/09/15 03:07:12;;;;;;;3.40;1.70;;;16.90;59.50;;;;;;5014495;28;20022;-63
2021/09/15 03:09:38;;;;;;;2.38;1.90;;;16.90;59.50;;;;;;5014054;28;20022;-63
2021/09/15 03:12:04;;;;;;;3.78;2.20;;;16.90;59.40;;;;;;5019472;28;20060;-63
2021/09/15 03:14:29;;;;;;;3.47;2.17;;;16.90;59.30;;;;;;5014679;28;20109;-63
2021/09/15 03:16:55;;;;;;;2.22;1.77;;;16.90;59.10;;;;;;5000641;28;20068;-63
2021/09/15 03:19:21;;;;;;;2.28;1.90;;;16.80;58.90;;;;;;5007449;28;20061;-63
2021/09/15 03:21:47;;;;;;;2.25;1.95;;;16.80;58.70;;;;;;5019995;28;20033;-63
2021/09/15 03:24:13;;;;;;;2.00;1.80;;;16.80;58.70;;;;;;5019594;28;20367;-63
2021/09/15 03:26:39;;;;;;;2.78;2.05;;;16.80;58.80;;;;;;5020032;28;20060;-63
2021/09/15 03:29:05;;;;;;;2.35;1.80;;;16.80;58.70;;;;;;5019660;28;20112;-63
2021/09/15 03:31:31;;;;;;;3.42;1.90;;;16.70;58.60;;;;;;5008621;28;20432;-63
2021/09/15 03:33:56;;;;;;;2.95;2.05;;;16.70;58.80;;;;;;4999949;28;20525;-63
2021/09/15 03:36:22;;;;;;;3.63;2.20;;;16.70;58.80;;;;;;5019379;28;20034;-63
2021/09/15 03:38:48;;;;;;;2.97;2.13;;;16.70;58.80;;;;;;5013111;28;20100;-63
2021/09/15 03:41:13;;;;;;;3.30;2.30;;;16.70;58.90;;;;;;5019215;28;20049;-63
2021/09/15 03:43:39;;;;;;;3.20;2.10;;;16.70;58.90;;;;;;5019400;28;20111;-63
2021/09/15 03:46:05;;;;;;;2.47;2.20;;;16.70;59.10;;;;;;5019219;28;20042;-63
2021/09/15 03:48:31;;;;;;;3.33;2.38;;;16.70;59.10;;;;;;5017960;28;20026;-63
2021/09/15 03:50:56;;;;;;;3.25;2.40;;;16.70;59.10;;;;;;5018819;28;20466;-63
2021/09/15 03:53:22;;;;;;;2.83;2.10;;;16.70;59.20;;;;;;5019590;28;20100;-63
2021/09/15 03:55:48;;;;;;;2.95;2.10;;;16.70;59.30;;;;;;5018933;28;20025;-63
2021/09/15 03:58:14;;;;;;;3.03;2.15;;;16.70;59.40;;;;;;5018707;28;20137;-63
2021/09/15 04:00:39;;;;;;;3.38;2.10;;;16.70;59.40;;;;;;5018939;28;20032;-63
2021/09/15 04:03:05;;;;;;;3.38;2.25;;;16.80;59.50;;;;;;5018517;28;20044;-63
2021/09/15 04:05:31;;;;;;;3.20;2.10;;;16.80;59.30;;;;;;5007611;28;20521;-63
2021/09/15 04:07:57;;;;;;;2.55;2.10;;;16.80;59.30;;;;;;4999539;28;20441;-63
2021/09/15 04:10:22;;;;;;;3.17;2.10;;;16.80;59.20;;;;;;5008142;28;20025;-63
2021/09/15 04:12:48;;;;;;;4.15;2.15;;;16.80;59.30;;;;;;5039011;28;20025;-63
2021/09/15 04:15:14;;;;;;;3.03;2.10;;;16.90;59.50;;;;;;5038667;28;20025;-63
2021/09/15 04:17:39;;;;;;;2.83;2.10;;;16.90;59.50;;;;;;5038228;28;20469;-63
2021/09/15 04:20:05;;;;;;;2.85;2.10;;;16.90;59.20;;;;;;5018557;28;20141;-63
2021/09/15 04:22:32;;;;;;;3.00;2.10;;;16.90;59.30;;;;;;5017553;28;20057;-63
2021/09/15 04:33:00;;;;;;;3.28;2.33;;;17.00;59.40;;;;;;5018288;28;20121;-63
2021/09/15 04:35:27;;;;;;;2.60;2.30;;;17.00;59.30;;;;;;5017861;28;20462;-63
2021/09/15 04:37:53;;;;;;;3.75;2.63;;;17.00;59.40;;;;;;5014389;28;20033;-63
2021/09/15 04:40:18;;;;;;;2.80;2.45;;;17.00;59.50;;;;;;4998395;28;20038;-63
2021/09/15 04:42:44;;;;;;;2.95;2.22;;;17.00;59.50;;;;;;4998211;28;20395;-63
2021/09/15 04:45:10;;;;;;;3.88;2.60;;;17.10;59.50;;;;;;4998621;28;20106;-63
2021/09/15 04:47:36;;;;;;;2.25;1.98;;;17.10;59.70;;;;;;4998914;28;20058;-63
2021/09/15 04:50:03;;;;;;;5.38;2.58;;;17.10;59.60;;;;;;5014836;28;20057;-63
2021/09/15 04:52:29;;;;;;;4.72;2.42;;;17.10;59.60;;;;;;5012697;28;20109;-63
2021/09/15 04:54:55;;;;;;;3.33;2.20;;;17.20;59.70;;;;;;5010964;28;20160;-63
2021/09/15 04:57:20;;;;;;;4.32;2.35;;;17.20;59.70;;;;;;5021297;28;20076;-63
2021/09/15 04:59:46;;;;;;;4.85;2.63;;;17.20;59.70;;;;;;5017057;28;20048;-63
2021/09/15 05:02:12;;;;;;;2.83;2.30;;;17.20;59.80;;;;;;5008046;28;20021;-63
2021/09/15 05:04:37;;;;;;;2.90;2.53;;;17.20;59.80;;;;;;5003507;28;20034;-63
2021/09/15 05:07:03;;;;;;;3.25;2.40;;;17.20;59.80;;;;;;5004591;28;20466;-63
2021/09/15 05:09:29;;;;;;;3.72;2.25;;;17.20;59.70;;;;;;5012380;28;20456;-63
2021/09/15 05:11:54;;;;;;;2.75;2.30;;;17.30;59.70;;;;;;5005926;28;20026;-63
2021/09/15 05:14:20;;;;;;;2.90;2.30;;;17.40;59.60;;;;;;5009168;28;20104;-63
2021/09/15 05:16:46;;;;;;;3.20;2.45;;;17.50;59.80;;;;;;5011664;28;20083;-63
2021/09/15 05:19:12;;;;;;;3.25;2.53;;;17.60;59.40;;;;;;5011709;28;21262;-63
2021/09/15 05:21:37;;;;;;;3.03;2.15;;;17.70;59.10;;;;;;5018469;28;20022;-63
2021/09/15 05:24:03;;;;;;;3.08;2.30;;;17.60;58.90;;;;;;5013152;28;20030;-63
2021/09/15 05:26:29;;;;;;;2.85;2.42;;;17.60;58.80;;;;;;5012331;28;20038;-63
2021/09/15 05:28:55;;;;;;;3.45;2.53;;;17.60;58.60;;;;;;5012747;28;20118;-63
2021/09/15 05:31:21;;;;;;;2.40;2.20;;;17.50;58.70;;;;;;5010083;28;20121;-63
2021/09/15 05:33:46;;;;;;;2.25;2.05;;;17.50;59.00;;;;;;5002067;28;20122;-63
2021/09/15 05:36:12;;;;;;;3.35;2.83;;;17.50;58.80;;;;;;5012038;28;20026;-63
2021/09/15 05:38:38;;;;;;;4.15;2.35;;;17.50;58.60;;;;;;5013381;28;20079;-63
2021/09/15 05:41:03;;;;;;;3.20;2.03;;;17.50;58.80;;;;;;5015360;28;20022;-63
2021/09/15 05:43:29;;;;;;;2.38;2.00;;;17.40;58.70;;;;;;5005404;28;20025;-63
2021/09/15 05:45:55;;;;;;;3.80;2.20;;;17.40;58.70;;;;;;5004507;28;20076;-63
2021/09/15 05:48:20;;;;;;;3.35;2.15;;;17.30;58.80;;;;;;5005334;28;20112;-63
2021/09/15 05:50:46;;;;;;;3.88;1.95;;;17.30;58.70;;;;;;4999076;28;20080;-63
2021/09/15 05:53:12;;;;;;;3.50;2.30;;;17.20;59.10;;;;;;5002606;28;20022;-63
2021/09/15 05:55:38;;;;;;;2.65;2.10;;;17.10;58.20;;;;;;5001233;28;20061;-63
2021/09/15 05:58:04;;;;;;;2.78;1.90;;;17.10;58.40;;;;;;5006038;28;20120;-63
2021/09/15 06:00:29;;;;;;;2.58;1.80;;;17.10;58.40;;;;;;5002874;28;20144;-63
2021/09/15 06:02:58;;;;;;;3.33;2.08;;;17.10;58.50;;;;;;4996821;28;20037;-63
2021/09/15 06:05:24;;;;;;;2.30;1.70;;;17.10;58.40;;;;;;5004297;28;20064;-63
2021/09/15 06:07:50;;;;;;;2.17;1.92;;;17.10;58.40;;;;;;4998561;28;20108;-62
2021/09/15 06:10:16;;;;;;;1.67;1.52;;;17.10;58.50;;;;;;4995557;28;20048;-62
2021/09/15 06:12:42;;;;;;;2.13;1.73;;;17.20;59.00;;;;;;4998210;28;20030;-64
2021/09/15 06:15:08;;;;;;;1.48;1.38;;;17.20;58.50;;;;;;5000729;28;20076;-62
2021/09/15 06:17:34;;;;;;;2.03;1.70;;;17.30;58.80;;;;;;5000167;28;20098;-63
2021/09/15 06:20:00;;;;;;;2.13;1.70;;;17.40;58.30;;;;;;5004202;28;20036;-62
2021/09/15 06:22:26;;;;;;;3.10;1.58;;;17.40;58.10;;;;;;4997556;28;20054;-62
2021/09/15 06:24:54;;;;;;;2.42;1.80;;;17.50;58.00;;;;;;5004265;28;20026;-62
2021/09/15 06:27:21;;;;;;;2.65;1.90;;;17.60;58.50;;;;;;5000956;28;20125;-63
2021/09/15 06:29:47;;;;;;;2.35;1.42;;;17.60;57.70;;;;;;5001797;28;20692;-63
2021/09/15 06:32:13;;;;;;;2.63;1.70;;;17.70;57.70;;;;;;4998276;28;20041;-63
2021/09/15 06:34:38;;;;;;;3.58;1.88;;;17.70;57.40;;;;;;4996532;28;20080;-64
2021/09/15 06:37:04;;;;;;;3.08;2.05;;;17.80;57.50;;;;;;4994682;28;20036;-64
2021/09/15 06:39:30;;;;;;;2.10;1.80;;;17.90;57.30;;;;;;4998691;28;20033;-62
2021/09/15 06:41:56;;;;;;;2.08;1.80;;;17.90;57.40;;;;;;5002214;28;20034;-63
2021/09/15 06:44:21;;;;;;;3.22;2.00;;;18.00;57.30;;;;;;4997842;28;20040;-64
2021/09/15 06:46:47;;;;;;;3.05;2.03;;;18.10;57.20;;;;;;5000036;28;20574;-63
2021/09/15 06:49:13;;;;;;;2.70;1.83;;;18.10;57.00;;;;;;4996273;28;20021;-64
2021/09/15 06:51:38;;;;;;;1.52;1.42;;;18.20;56.90;;;;;;4998264;28;20034;-63
2021/09/15 06:54:04;;;;;;;2.40;1.88;;;18.20;56.80;;;;;;4993278;28;20073;-63
2021/09/15 06:56:29;;;;;;;2.08;1.70;;;18.30;56.60;;;;;;4994398;28;20513;-63
2021/09/15 06:58:55;;;;;;;2.90;1.65;;;18.30;56.50;;;;;;4999456;28;20044;-64
2021/09/15 07:01:24;;;;;;;2.10;1.77;;;18.40;56.30;;;;;;4995787;28;20038;-64
2021/09/15 07:03:50;;;;;;;2.47;1.98;;;18.40;56.20;;;;;;4995481;28;20042;-63
2021/09/15 07:06:16;;;;;;;2.47;1.80;;;18.50;56.20;;;;;;4995834;28;20033;-63
2021/09/15 07:08:42;;;;;;;3.38;2.00;;;18.50;56.00;;;;;;4997047;28;21401;-63
2021/09/15 07:11:07;;;;;;;3.33;1.85;;;18.50;55.60;;;;;;4999679;28;20030;-63
2021/09/15 07:13:33;;;;;;;3.20;2.00;;;18.60;55.40;;;;;;5000326;28;20034;-64
2021/09/15 07:15:58;;;;;;;2.15;1.88;;;18.60;55.30;;;;;;4997629;28;20037;-63
2021/09/15 07:18:28;;;;;;;2.83;2.30;;;18.70;55.20;;;;;;4993965;28;20057;-63
2021/09/15 07:20:54;;;;;;;4.28;2.20;;;18.70;55.00;;;;;;4992870;28;20049;-63
2021/09/15 07:23:19;;;;;;;2.35;2.03;;;18.70;55.00;;;;;;4993885;28;20049;-62
2021/09/15 07:25:45;;;;;;;6.18;2.42;;;18.80;54.90;;;;;;4994425;28;20034;-63
2021/09/15 07:28:11;;;;;;;2.25;1.80;;;18.80;54.80;;;;;;4992654;28;20029;-64
2021/09/15 07:30:36;;;;;;;2.78;2.00;;;18.80;54.70;;;;;;4997826;28;20034;-64
2021/09/15 07:33:02;;;;;;;3.47;2.08;;;18.90;54.50;;;;;;4998027;28;20116;-64
2021/09/15 07:35:28;;;;;;;2.97;2.20;;;18.90;54.70;;;;;;4998918;28;20033;-63
2021/09/15 07:37:53;;;;;;;2.08;1.77;;;18.90;54.70;;;;;;4997594;28;20044;-63
2021/09/15 07:40:19;;;;;;;3.03;2.17;;;18.90;54.90;;;;;;5002617;28;20030;-63
2021/09/15 07:42:45;;;;;;;2.45;2.22;;;18.90;54.80;;;;;;4998846;28;20030;-63
2021/09/15 07:45:12;;;;;;;2.13;1.92;;;19.00;54.70;;;;;;5000572;28;20087;-63
2021/09/15 07:47:39;;;;;;;3.95;2.25;;;19.00;54.60;;;;;;4999136;28;20040;-63
2021/09/15 07:50:05;;;;;;;2.70;2.30;;;19.00;54.50;;;;;;4999444;28;20621;-63
2021/09/15 07:52:31;;;;;;;2.20;1.88;;;19.00;53.90;;;;;;4993895;28;20037;-63
2021/09/15 07:54:57;;;;;;;2.92;1.90;;;19.00;53.90;;;;;;4993495;28;20026;-64
2021/09/15 07:57:23;;;;;;;3.10;2.10;;;19.00;53.90;;;;;;4998924;28;20026;-63
2021/09/15 07:59:48;;;;;;;2.22;2.00;;;19.00;53.80;;;;;;4995977;28;20381;-64
2021/09/15 08:02:14;;;;;;;2.78;2.47;;;19.00;53.70;;;;;;5007038;28;20074;-63
2021/09/15 08:04:40;;;;;;;2.80;1.73;;;19.00;53.50;;;;;;5005451;28;20042;-63
2021/09/15 08:07:05;;;;;;;2.47;2.00;;;19.00;53.60;;;;;;5004613;28;20497;-63
2021/09/15 08:09:31;;;;;;;1.80;1.60;;;19.00;53.50;;;;;;5002386;28;20029;-63
2021/09/15 08:11:57;;;;;;;2.25;1.60;;;19.00;53.20;;;;;;5002852;28;20030;-63
2021/09/15 08:14:23;;;;;;;2.15;1.80;;;19.00;53.50;;;;;;4997760;28;20062;-62
2021/09/15 08:16:48;;;;;;;1.85;1.75;;;19.00;53.20;;;;;;5001911;28;20458;-63
2021/09/15 08:19:14;;;;;;;1.92;1.80;;;19.00;53.10;;;;;;4995751;28;20026;-64
2021/09/15 08:21:41;;;;;;;3.15;2.10;;;19.00;53.10;;;;;;4996525;28;20021;-64
2021/09/15 08:24:07;;;;;;;1.65;1.50;;;19.00;52.80;;;;;;4999173;28;20080;-63
2021/09/15 08:26:33;;;;;;;1.70;1.60;;;18.90;52.60;;;;;;4995911;28;20057;-63
2021/09/15 08:28:58;;;;;;;1.85;1.75;;;18.90;52.80;;;;;;4998277;28;20375;-63
2021/09/15 08:31:24;;;;;;;1.95;1.42;;;18.90;52.50;;;;;;4996892;28;20030;-64
2021/09/15 08:33:49;;;;;;;1.77;1.50;;;18.90;52.10;;;;;;4998980;28;20041;-63
2021/09/15 08:36:15;;;;;;;1.42;1.25;;;18.90;51.90;;;;;;4998144;28;20516;-63
2021/09/15 08:38:41;;;;;;;1.70;1.60;;;18.90;51.80;;;;;;4998717;28;20034;-63
2021/09/15 08:41:07;;;;;;;2.97;1.67;;;18.90;51.70;;;;;;4999897;28;20018;-62
2021/09/15 08:43:36;;;;;;;2.47;1.85;;;18.90;51.90;;;;;;4992298;28;20096;-62
2021/09/15 08:46:04;;;;;;;1.75;1.65;;;18.90;51.80;;;;;;4996068;28;20033;-63
2021/09/15 08:48:38;;;;;;;2.00;1.90;;;18.90;51.60;;;;;;4993845;28;20026;-63
2021/09/15 08:51:04;;;;;;;1.90;1.70;;;18.90;51.60;;;;;;4998803;28;20049;-63
2021/09/15 08:53:30;;;;;;;3.33;2.17;;;18.90;51.70;;;;;;4997420;28;20570;-63
2021/09/15 08:55:55;;;;;;;2.78;2.25;;;18.90;51.60;;;;;;5001616;28;20045;-63
2021/09/15 08:58:21;;;;;;;2.28;2.08;;;18.80;51.50;;;;;;4999993;28;20026;-63
2021/09/15 09:00:47;;;;;;;2.88;1.98;;;18.80;51.60;;;;;;5002555;28;20053;-63
2021/09/15 09:03:13;;;;;;;2.92;2.20;;;18.80;51.50;;;;;;4999300;28;20038;-63
2021/09/15 09:05:38;;;;;;;3.38;1.90;;;18.80;51.60;;;;;;4995391;28;20030;-63
2021/09/15 09:08:24;;;;;;;1.58;1.48;;;18.80;51.70;;;;;;4987869;28;20620;-63
2021/09/15 09:10:53;;;;;;;1.83;1.40;;;18.80;51.90;;;;;;5000925;28;20046;-63
2021/09/15 09:13:19;;;;;;;1.98;1.77;;;18.80;51.80;;;;;;4999137;28;20134;-63
2021/09/15 09:15:45;;;;;;;2.22;1.92;;;18.80;51.80;;;;;;4998523;28;20042;-63
2021/09/15 09:18:11;;;;;;;2.15;1.65;;;18.80;52.20;;;;;;4992156;28;20057;-63
2021/09/15 09:20:37;;;;;;;2.53;1.90;;;18.90;52.20;;;;;;4998657;28;20118;-63
2021/09/15 09:23:08;;;;;;;2.10;1.70;;;18.90;52.10;;;;;;4994227;28;20132;-63
2021/09/15 09:25:45;;;;;;;1.70;1.40;;;18.90;52.20;;;;;;4997210;28;20049;-63
2021/09/15 09:28:21;;;;;;;3.00;1.63;;;18.90;52.10;;;;;;4988842;28;20038;-63
2021/09/15 09:30:48;;;;;;;2.00;1.77;;;18.90;52.10;;;;;;4991698;28;20026;-63
2021/09/15 09:33:16;;;;;;;2.65;1.65;;;18.90;52.30;;;;;;4996947;28;20549;-63
2021/09/15 09:35:46;;;;;;;5.22;1.75;;;18.90;52.40;;;;;;4991249;28;20333;-63
2021/09/15 09:38:19;;;;;;;1.93;1.70;;;18.90;52.40;;;;;;4995903;28;20457;-63
2021/09/15 09:40:57;;;;;;;2.17;1.70;;;18.90;52.40;;;;;;4995510;28;20092;-64
2021/09/15 09:43:23;;;;;;;3.25;2.03;;;19.00;52.50;;;;;;4989471;28;20085;-64
2021/09/15 09:45:49;;;;;;;1.70;1.60;;;19.00;52.50;;;;;;4994247;28;20492;-63
2021/09/15 09:48:41;;;;;;;2.70;2.03;;;19.00;52.40;;;;;;4995023;28;20045;-63
2021/09/15 09:51:24;;;;;;;2.30;1.58;;;19.00;52.40;;;;;;4997311;28;20041;-63
2021/09/15 09:54:04;;;;;;;2.28;1.70;;;19.10;52.30;;;;;;4993415;28;20105;-63
2021/09/15 09:56:30;;;;;;;1.83;1.50;;;19.00;52.20;;;;;;4996293;28;20423;-63
2021/09/15 09:58:56;;;;;;;2.08;1.70;;;19.10;52.20;;;;;;4995689;28;20640;-63
2021/09/15 10:01:22;;;;;;;1.88;1.52;;;19.10;52.30;;;;;;5003803;28;20072;-63
2021/09/15 10:03:48;;;;;;;1.63;1.33;;;19.10;52.30;;;;;;5001499;28;20045;-63
2021/09/15 10:06:14;;;;;;;1.60;1.50;;;19.10;52.30;;;;;;5001339;28;20022;-63
2021/09/15 10:08:42;;;;;;;2.10;1.70;;;19.20;52.90;;;;;;5003376;28;20466;-63
2021/09/15 10:11:08;;;;;;;1.80;1.48;;;19.20;52.20;;;;;;5003647;28;20036;-63
2021/09/15 10:13:34;;;;;;;1.52;1.42;;;19.20;52.10;;;;;;5003072;28;20106;-63
2021/09/15 10:16:05;;;;;;;1.38;1.27;;;19.20;52.20;;;;;;5000766;28;20709;-63
2021/09/15 10:18:31;;;;;;;3.35;1.70;;;19.20;52.10;;;;;;4997960;28;20025;-63
2021/09/15 10:20:58;;;;;;;1.42;1.35;;;19.30;52.00;;;;;;4996889;28;20045;-63
2021/09/15 10:23:49;;;;;;;1.65;1.55;;;19.20;51.90;;;;;;4999467;28;20053;-63
2021/09/15 10:26:29;;;;;;;2.22;1.38;;;19.20;51.80;;;;;;4992887;28;20430;-64
2021/09/15 10:29:14;;;;;;;2.20;1.70;;;19.30;51.90;;;;;;4995248;28;20041;-64
2021/09/15 10:31:48;;;;;;;1.70;1.60;;;19.30;51.90;;;;;;5005568;28;20041;-63
2021/09/15 10:34:39;;;;;;;1.23;1.17;;;19.30;52.10;;;;;;5000843;28;20504;-63
2021/09/15 10:37:06;;;;;;;1.30;1.20;;;19.40;52.70;;;;;;4996121;28;20141;-63
2021/09/15 10:39:32;;;;;;;1.40;1.30;;;19.40;52.10;;;;;;5002949;28;20087;-63
2021/09/15 10:41:58;;;;;;;2.20;1.48;;;19.40;51.90;;;;;;5011787;28;20766;-63
2021/09/15 10:44:24;;;;;;;1.65;1.52;;;19.40;51.90;;;;;;5004189;28;20041;-63
2021/09/15 10:47:16;;;;;;;1.50;1.40;;;19.40;51.90;;;;;;5001973;28;20041;-63
2021/09/15 10:49:42;;;;;;;1.75;1.40;;;19.40;52.00;;;;;;4987811;28;20782;-63
2021/09/15 10:52:10;;;;;;;1.48;1.25;;;19.50;52.20;;;;;;4991229;28;20438;-63
2021/09/15 10:54:43;;;;;;;1.60;1.50;;;19.50;52.40;;;;;;4989498;28;20037;-64
2021/09/15 10:57:15;;;;;;;1.50;1.40;;;19.50;52.40;;;;;;4993393;28;20092;-63
2021/09/15 10:59:52;;;;;;;1.90;1.60;;;19.50;52.50;;;;;;4989344;28;20034;-63
2021/09/15 11:02:28;;;;;;;1.45;1.35;;;19.50;52.50;;;;;;4998581;28;20038;-64
2021/09/15 11:04:55;;;;;;;1.42;1.23;;;19.60;52.70;;;;;;4995886;28;20026;-63
2021/09/15 11:07:54;;;;;;;3.45;1.52;;;19.60;52.70;;;;;;4992122;28;20100;-64
2021/09/15 11:10:32;;;;;;;2.85;1.35;;;19.60;52.60;;;;;;5003682;28;20049;-64
2021/09/15 11:13:37;;;;;;;1.30;1.20;;;19.60;52.50;;;;;;4994320;28;20038;-64
2021/09/15 11:16:41;;;;;;;2.28;1.50;;;19.60;52.40;;;;;;5003202;28;20135;-63
2021/09/15 11:19:14;;;;;;;1.73;1.40;;;19.60;52.30;;;;;;4998585;28;20517;-64
2021/09/15 11:21:48;;;;;;;1.45;1.35;;;19.60;52.30;;;;;;4994528;28;20058;-63
2021/09/15 11:24:20;;;;;;;1.38;1.27;;;19.60;52.20;;;;;;4997605;28;20049;-64
2021/09/15 11:26:48;;;;;;;1.98;1.70;;;19.60;52.20;;;;;;4999169;28;20152;-64
2021/09/15 11:29:33;;;;;;;1.40;1.30;;;19.60;51.90;;;;;;4988015;28;20120;-65
2021/09/15 11:31:59;;;;;;;1.83;1.50;;;19.60;51.80;;;;;;4990988;28;20022;-62
2021/09/15 11:34:25;;;;;;;4.00;1.80;;;19.70;51.80;;;;;;4992082;28;20044;-62
2021/09/15 11:36:50;;;;;;;2.28;1.40;;;19.70;51.50;;;;;;4995709;28;20030;-62
2021/09/15 11:39:21;;;;;;;2.03;1.60;;;19.70;51.70;;;;;;4993390;28;20033;-61
2021/09/15 11:41:47;;;;;;;1.58;1.48;;;19.70;51.00;;;;;;4995823;28;20065;-62
2021/09/15 11:44:13;;;;;;;1.60;1.50;;;19.70;50.60;;;;;;4997931;28;22812;-63
2021/09/15 11:46:39;;;;;;;1.63;1.52;;;19.70;50.10;;;;;;4996114;28;20042;-63
2021/09/15 11:49:05;;;;;;;1.95;1.48;;;19.70;49.90;;;;;;4995539;28;20092;-62
2021/09/15 11:51:36;;;;;;;1.60;1.45;;;19.70;49.70;;;;;;4995201;28;20042;-62
2021/09/15 11:59:02;;;;;;;2.00;1.70;;;19.70;49.20;;;;;;4997173;28;20549;-61
2021/09/15 12:01:31;;;;;;;2.75;1.58;;;19.70;49.00;;;;;;4998382;28;20018;-62
2021/09/15 12:04:01;;;;;;;2.10;1.70;;;19.80;49.00;;;;;;4998001;28;20082;-63
2021/09/15 12:06:27;;;;;;;1.73;1.63;;;19.80;49.20;;;;;;4994781;28;20211;-62
2021/09/15 12:08:56;;;;;;;2.35;1.98;;;19.80;49.90;;;;;;4997121;28;20049;-62
2021/09/15 12:11:22;;;;;;;2.90;2.03;;;19.80;49.40;;;;;;4994159;28;20064;-62
2021/09/15 12:13:56;;;;;;;2.25;1.58;;;19.80;49.30;;;;;;4994781;28;20392;-63
2021/09/15 12:16:26;;;;;;;2.17;1.92;;;19.80;49.60;;;;;;4996810;28;20021;-62
2021/09/15 12:18:52;;;;;;;1.77;1.67;;;19.80;49.40;;;;;;4994604;28;20021;-62
2021/09/15 12:21:20;;;;;;;2.55;1.70;;;19.80;49.30;;;;;;4995436;28;20041;-61
2021/09/15 12:23:47;;;;;;;2.65;2.00;;;19.80;49.30;;;;;;4993001;28;20042;-62
2021/09/15 12:26:14;;;;;;;1.67;1.58;;;19.80;49.10;;;;;;4991768;28;20655;-62
2021/09/15 12:28:40;;;;;;;2.63;1.80;;;19.80;49.00;;;;;;4994491;28;20474;-62
2021/09/15 12:31:15;;;;;;;2.67;1.63;;;19.80;48.90;;;;;;4993921;28;20125;-63
2021/09/15 12:33:41;;;;;;;2.17;1.60;;;19.80;48.80;;;;;;4992476;28;20034;-63
2021/09/15 12:36:19;;;;;;;3.13;1.40;;;19.80;48.70;;;;;;4992152;28;20033;-63
2021/09/15 12:38:45;;;;;;;2.13;1.50;;;19.90;48.50;;;;;;4994707;28;20365;-62
2021/09/15 12:41:11;;;;;;;2.08;1.70;;;19.90;48.30;;;;;;4999987;28;20042;-62
2021/09/15 12:43:37;;;;;;;1.52;1.40;;;19.90;48.40;;;;;;5001179;28;20038;-63
2021/09/15 12:46:02;;;;;;;2.08;1.88;;;19.90;48.00;;;;;;4998419;28;20130;-63
2021/09/15 12:48:28;;;;;;;3.63;1.73;;;19.90;47.70;;;;;;4996947;28;20112;-62
2021/09/15 12:50:54;;;;;;;2.80;1.90;;;19.90;47.80;;;;;;4997689;28;20042;-62
2021/09/15 12:53:20;;;;;;;1.73;1.60;;;19.90;47.80;;;;;;4998509;28;20037;-63
2021/09/15 12:55:49;;;;;;;2.45;1.90;;;19.90;47.80;;;;;;5001031;28;20063;-63
2021/09/15 12:58:34;;;;;;;2.00;1.65;;;19.90;47.70;;;;;;4998923;28;20128;-63
2021/09/15 13:01:00;;;;;;;1.83;1.73;;;19.90;47.60;;;;;;4994309;28;20037;-63
2021/09/15 13:03:55;;;;;;;2.05;1.85;;;19.90;47.90;;;;;;5000972;28;20038;-63